createdAt,value
2018-06-25T00:00:09.379Z,0
2018-06-25T00:01:08.913Z,0
2018-06-25T00:02:09.100Z,0
2018-06-25T00:03:09.156Z,0
2018-06-25T00:04:09.387Z,0
2018-06-25T00:05:08.877Z,0
2018-06-25T00:06:09.131Z,0
2018-06-25T00:07:08.620Z,0
2018-06-25T00:08:09.091Z,0
2018-06-25T00:09:09.063Z,0
2018-06-25T00:10:08.884Z,0
2018-06-25T00:11:09.068Z,0
2018-06-25T00:12:09.084Z,0
2018-06-25T00:13:08.840Z,0
2018-06-25T00:14:09.333Z,0
2018-06-25T00:15:09.160Z,0
2018-06-25T00:16:09.098Z,0
2018-06-25T00:17:08.856Z,0
2018-06-25T00:18:09.078Z,0
2018-06-25T00:19:08.828Z,0
2018-06-25T00:20:09.008Z,0
2018-06-25T00:21:09.333Z,0
2018-06-25T00:22:08.836Z,0
2018-06-25T00:23:08.834Z,0
2018-06-25T00:24:08.818Z,0
2018-06-25T00:25:08.905Z,0
2018-06-25T00:26:09.122Z,0
2018-06-25T00:27:09.351Z,0
2018-06-25T00:28:08.824Z,0
2018-06-25T00:29:08.807Z,0
2018-06-25T00:30:09.387Z,0
2018-06-25T00:31:08.809Z,0
2018-06-25T00:32:09.054Z,0
2018-06-25T00:33:09.305Z,0
2018-06-25T00:34:09.050Z,0
2018-06-25T00:35:08.886Z,0
2018-06-25T00:36:08.815Z,0
2018-06-25T00:37:09.085Z,0
2018-06-25T00:38:09.117Z,0
2018-06-25T00:39:08.596Z,0
2018-06-25T00:40:09.223Z,0
2018-06-25T00:41:09.083Z,0
2018-06-25T00:42:08.861Z,0
2018-06-25T00:43:08.829Z,0
2018-06-25T00:44:08.814Z,0
2018-06-25T00:45:08.936Z,0
2018-06-25T00:46:08.865Z,0
2018-06-25T00:47:09.105Z,0
2018-06-25T00:48:09.321Z,0
2018-06-25T00:49:08.818Z,0
2018-06-25T00:50:08.974Z,0
2018-06-25T00:51:09.082Z,0
2018-06-25T00:52:08.562Z,0
2018-06-25T00:53:08.813Z,0
2018-06-25T00:54:09.070Z,0
2018-06-25T00:55:09.165Z,0
2018-06-25T00:56:09.098Z,0
2018-06-25T00:57:09.074Z,0
2018-06-25T00:58:08.807Z,0
2018-06-25T00:59:09.070Z,0
2018-06-25T01:00:09.110Z,0
2018-06-25T01:01:09.325Z,0
2018-06-25T01:02:08.816Z,0
2018-06-25T01:03:09.099Z,0
2018-06-25T01:04:09.070Z,0
2018-06-25T01:05:09.112Z,0
2018-06-25T01:06:09.737Z,0
2018-06-25T01:07:09.308Z,0
2018-06-25T01:08:09.075Z,0
2018-06-25T01:09:08.807Z,0
2018-06-25T01:10:08.612Z,0
2018-06-25T01:11:09.331Z,0
2018-06-25T01:12:09.073Z,0
2018-06-25T01:13:08.828Z,0
2018-06-25T01:14:08.832Z,0
2018-06-25T01:15:09.431Z,0
2018-06-25T01:16:09.315Z,0
2018-06-25T01:17:08.823Z,0
2018-06-25T01:18:09.325Z,0
2018-06-25T01:19:09.074Z,0
2018-06-25T01:20:08.828Z,0
2018-06-25T01:21:09.062Z,0
2018-06-25T01:22:08.810Z,0
2018-06-25T01:23:09.069Z,0
2018-06-25T01:24:09.063Z,0
2018-06-25T01:25:09.144Z,0
2018-06-25T01:26:09.071Z,0
2018-06-25T01:27:09.312Z,0
2018-06-25T01:28:11.517Z,0
2018-06-25T01:29:09.084Z,0
2018-06-25T01:30:08.704Z,0
2018-06-25T01:31:08.819Z,0
2018-06-25T01:32:09.071Z,0
2018-06-25T01:33:09.081Z,0
2018-06-25T01:34:08.578Z,0
2018-06-25T01:35:08.677Z,0
2018-06-25T01:36:09.087Z,0
2018-06-25T01:37:09.067Z,0
2018-06-25T01:38:09.322Z,0
2018-06-25T01:39:08.828Z,0
2018-06-25T01:40:09.367Z,0
2018-06-25T01:41:09.326Z,0
2018-06-25T01:42:09.092Z,0
2018-06-25T01:43:09.681Z,0
2018-06-25T01:44:08.823Z,0
2018-06-25T01:45:09.334Z,0
2018-06-25T01:46:08.568Z,0
2018-06-25T01:47:08.809Z,0
2018-06-25T01:48:09.330Z,0
2018-06-25T01:49:09.072Z,0
2018-06-25T01:50:09.472Z,0
2018-06-25T01:51:08.831Z,0
2018-06-25T01:52:09.074Z,0
2018-06-25T01:53:08.809Z,0
2018-06-25T01:54:08.820Z,0
2018-06-25T01:55:09.101Z,0
2018-06-25T01:56:08.799Z,0
2018-06-25T01:57:09.314Z,0
2018-06-25T01:58:09.254Z,0
2018-06-25T01:59:08.804Z,0
2018-06-25T02:00:09.197Z,0
2018-06-25T02:01:09.080Z,0
2018-06-25T02:02:08.799Z,0
2018-06-25T02:03:08.564Z,0
2018-06-25T02:04:09.069Z,0
2018-06-25T02:05:09.530Z,0
2018-06-25T02:06:09.310Z,0
2018-06-25T02:07:08.555Z,0
2018-06-25T02:08:09.073Z,0
2018-06-25T02:09:08.569Z,0
2018-06-25T02:10:08.695Z,0
2018-06-25T02:11:09.325Z,0
2018-06-25T02:12:08.789Z,0
2018-06-25T02:13:09.164Z,0
2018-06-25T02:14:08.814Z,0
2018-06-25T02:15:08.635Z,0
2018-06-25T02:16:09.333Z,0
2018-06-25T02:17:08.803Z,0
2018-06-25T02:18:09.067Z,0
2018-06-25T02:19:09.377Z,0
2018-06-25T02:20:09.410Z,0
2018-06-25T02:21:08.543Z,0
2018-06-25T02:22:08.796Z,0
2018-06-25T02:23:08.790Z,0
2018-06-25T02:24:09.365Z,0
2018-06-25T02:25:08.592Z,0
2018-06-25T02:26:08.816Z,0
2018-06-25T02:27:09.070Z,0
2018-06-25T02:28:09.045Z,0
2018-06-25T02:29:08.594Z,0
2018-06-25T02:30:09.111Z,0
2018-06-25T02:31:09.063Z,0
2018-06-25T02:32:08.548Z,0
2018-06-25T02:33:09.368Z,0
2018-06-25T02:34:09.056Z,0
2018-06-25T02:35:08.890Z,0
2018-06-25T02:36:09.161Z,0
2018-06-25T02:37:09.100Z,0
2018-06-25T02:38:08.780Z,0
2018-06-25T02:39:09.052Z,0
2018-06-25T02:40:09.173Z,0
2018-06-25T02:41:09.040Z,4
2018-06-25T02:42:09.128Z,0
2018-06-25T02:43:09.326Z,4
2018-06-25T02:44:08.783Z,4
2018-06-25T02:45:09.246Z,4
2018-06-25T02:46:08.820Z,0
2018-06-25T02:47:08.845Z,0
2018-06-25T02:48:09.318Z,4
2018-06-25T02:49:09.110Z,4
2018-06-25T02:50:09.036Z,4
2018-06-25T02:51:09.296Z,4
2018-06-25T02:52:09.062Z,4
2018-06-25T02:53:08.792Z,4
2018-06-25T02:54:09.290Z,8
2018-06-25T02:55:09.209Z,8
2018-06-25T02:56:08.784Z,8
2018-06-25T02:57:09.048Z,8
2018-06-25T02:58:08.561Z,12
2018-06-25T02:59:09.250Z,12
2018-06-25T03:00:09.141Z,16
2018-06-25T03:01:09.286Z,16
2018-06-25T03:02:09.293Z,20
2018-06-25T03:03:09.057Z,24
2018-06-25T03:04:09.281Z,24
2018-06-25T03:05:09.308Z,28
2018-06-25T03:06:08.795Z,32
2018-06-25T03:07:08.522Z,40
2018-06-25T03:08:08.809Z,48
2018-06-25T03:09:09.868Z,52
2018-06-25T03:10:09.227Z,64
2018-06-25T03:11:08.783Z,72
2018-06-25T03:12:09.285Z,88
2018-06-25T03:13:09.522Z,96
2018-06-25T03:14:08.761Z,112
2018-06-25T03:15:08.819Z,120
2018-06-25T03:16:09.051Z,128
2018-06-25T03:17:09.005Z,144
2018-06-25T03:18:08.537Z,152
2018-06-25T03:19:09.346Z,164
2018-06-25T03:20:09.292Z,172
2018-06-25T03:21:09.063Z,184
2018-06-25T03:22:08.768Z,196
2018-06-25T03:23:09.018Z,204
2018-06-25T03:24:09.062Z,216
2018-06-25T03:25:08.521Z,232
2018-06-25T03:26:08.497Z,244
2018-06-25T03:27:08.512Z,260
2018-06-25T03:28:08.850Z,272
2018-06-25T03:29:09.007Z,284
2018-06-25T03:30:09.320Z,300
2018-06-25T03:31:09.010Z,316
2018-06-25T03:32:09.281Z,340
2018-06-25T03:33:09.007Z,360
2018-06-25T03:34:08.746Z,380
2018-06-25T03:35:09.010Z,396
2018-06-25T03:36:09.002Z,412
2018-06-25T03:37:09.291Z,428
2018-06-25T03:38:08.993Z,440
2018-06-25T03:39:09.008Z,452
2018-06-25T03:40:09.254Z,464
2018-06-25T03:41:08.994Z,472
2018-06-25T03:42:08.752Z,480
2018-06-25T03:43:09.282Z,492
2018-06-25T03:44:09.002Z,512
2018-06-25T03:45:09.329Z,520
2018-06-25T03:46:09.289Z,524
2018-06-25T03:47:09.034Z,512
2018-06-25T03:48:08.987Z,508
2018-06-25T03:49:08.733Z,508
2018-06-25T03:50:08.785Z,508
2018-06-25T03:51:09.281Z,520
2018-06-25T03:52:08.733Z,536
2018-06-25T03:53:09.244Z,560
2018-06-25T03:54:09.011Z,592
2018-06-25T03:55:08.793Z,624
2018-06-25T03:56:09.254Z,768
2018-06-25T03:57:09.258Z,1256
2018-06-25T03:58:09.252Z,1516
2018-06-25T03:59:08.989Z,1240
2018-06-25T04:00:09.242Z,1356
2018-06-25T04:01:09.489Z,1176
2018-06-25T04:02:08.731Z,700
2018-06-25T04:03:09.246Z,672
2018-06-25T04:04:08.720Z,696
2018-06-25T04:05:09.004Z,704
2018-06-25T04:06:08.984Z,704
2018-06-25T04:07:09.251Z,708
2018-06-25T04:08:09.233Z,720
2018-06-25T04:09:09.228Z,752
2018-06-25T04:10:09.122Z,788
2018-06-25T04:11:09.264Z,824
2018-06-25T04:12:09.076Z,856
2018-06-25T04:13:09.033Z,892
2018-06-25T04:14:08.755Z,952
2018-06-25T04:15:09.008Z,1024
2018-06-25T04:16:09.005Z,1108
2018-06-25T04:17:09.234Z,1200
2018-06-25T04:18:08.990Z,1276
2018-06-25T04:19:08.748Z,1364
2018-06-25T04:20:09.000Z,1468
2018-06-25T04:21:08.984Z,1596
2018-06-25T04:22:08.988Z,1708
2018-06-25T04:23:08.975Z,1868
2018-06-25T04:24:08.466Z,2000
2018-06-25T04:25:09.299Z,2116
2018-06-25T04:26:08.782Z,2204
2018-06-25T04:27:08.758Z,2224
2018-06-25T04:28:08.745Z,2268
2018-06-25T04:29:09.327Z,2356
2018-06-25T04:30:08.835Z,2408
2018-06-25T04:31:08.734Z,2392
2018-06-25T04:32:08.972Z,2424
2018-06-25T04:33:09.018Z,2568
2018-06-25T04:34:08.465Z,2732
2018-06-25T04:35:08.824Z,2920
2018-06-25T04:36:09.007Z,3100
2018-06-25T04:37:08.716Z,3256
2018-06-25T04:38:08.994Z,3320
2018-06-25T04:39:09.246Z,3220
2018-06-25T04:40:09.125Z,3072
2018-06-25T04:41:08.728Z,2948
2018-06-25T04:42:08.963Z,2888
2018-06-25T04:43:08.470Z,2876
2018-06-25T04:44:09.004Z,2876
2018-06-25T04:45:08.811Z,2892
2018-06-25T04:46:08.963Z,2920
2018-06-25T04:47:08.967Z,2964
2018-06-25T04:48:09.212Z,2980
2018-06-25T04:49:09.217Z,3048
2018-06-25T04:50:08.759Z,3084
2018-06-25T04:51:09.252Z,3052
2018-06-25T04:52:08.967Z,2952
2018-06-25T04:53:08.719Z,2760
2018-06-25T04:54:08.970Z,2524
2018-06-25T04:55:08.861Z,2328
2018-06-25T04:56:08.486Z,2156
2018-06-25T04:57:08.973Z,2048
2018-06-25T04:58:08.471Z,1964
2018-06-25T04:59:08.969Z,1880
2018-06-25T05:00:09.349Z,1860
2018-06-25T05:01:09.140Z,1864
2018-06-25T05:02:08.470Z,1884
2018-06-25T05:03:08.464Z,1952
2018-06-25T05:04:08.981Z,2072
2018-06-25T05:05:08.753Z,2252
2018-06-25T05:06:08.736Z,2440
2018-06-25T05:07:08.706Z,2616
2018-06-25T05:08:08.959Z,2792
2018-06-25T05:09:08.716Z,3040
2018-06-25T05:10:08.822Z,3224
2018-06-25T05:11:08.757Z,3332
2018-06-25T05:12:08.722Z,3452
2018-06-25T05:13:08.472Z,3620
2018-06-25T05:14:08.708Z,3776
2018-06-25T05:15:08.751Z,3872
2018-06-25T05:16:08.965Z,3892
2018-06-25T05:17:08.475Z,3880
2018-06-25T05:18:08.708Z,3844
2018-06-25T05:19:09.220Z,3792
2018-06-25T05:20:08.789Z,3732
2018-06-25T05:21:08.720Z,3656
2018-06-25T05:22:08.697Z,3564
2018-06-25T05:23:08.960Z,3480
2018-06-25T05:24:08.991Z,3440
2018-06-25T05:25:08.816Z,3404
2018-06-25T05:26:09.066Z,3372
2018-06-25T05:27:08.706Z,3348
2018-06-25T05:28:08.980Z,3280
2018-06-25T05:29:10.997Z,3160
2018-06-25T05:30:09.043Z,3112
2018-06-25T05:31:09.232Z,3088
2018-06-25T05:32:08.485Z,3068
2018-06-25T05:33:08.989Z,3040
2018-06-25T05:34:08.742Z,3004
2018-06-25T05:35:08.860Z,2960
2018-06-25T05:36:09.268Z,2880
2018-06-25T05:37:08.747Z,2840
2018-06-25T05:38:09.062Z,2820
2018-06-25T05:39:08.718Z,2768
2018-06-25T05:40:09.300Z,2672
2018-06-25T05:41:09.229Z,2596
2018-06-25T05:42:08.979Z,2548
2018-06-25T05:43:08.956Z,2516
2018-06-25T05:44:08.971Z,2508
2018-06-25T05:45:09.375Z,2536
2018-06-25T05:46:09.221Z,2600
2018-06-25T05:47:08.733Z,2704
2018-06-25T05:48:08.742Z,2860
2018-06-25T05:49:08.496Z,3076
2018-06-25T05:50:08.779Z,3356
2018-06-25T05:51:08.755Z,3676
2018-06-25T05:52:08.768Z,4004
2018-06-25T05:53:08.734Z,4232
2018-06-25T05:54:09.257Z,4320
2018-06-25T05:55:08.748Z,4352
2018-06-25T05:56:08.745Z,4380
2018-06-25T05:57:09.047Z,4436
2018-06-25T05:58:08.760Z,4532
2018-06-25T05:59:09.449Z,4648
2018-06-25T06:00:08.606Z,4788
2018-06-25T06:01:08.716Z,4960
2018-06-25T06:02:08.748Z,5140
2018-06-25T06:03:08.978Z,5380
2018-06-25T06:04:09.251Z,5612
2018-06-25T06:05:09.409Z,5784
2018-06-25T06:06:09.231Z,5892
2018-06-25T06:07:08.775Z,5992
2018-06-25T06:08:08.476Z,6032
2018-06-25T06:09:08.831Z,6036
2018-06-25T06:10:08.832Z,6076
2018-06-25T06:11:08.738Z,6216
2018-06-25T06:12:08.765Z,6136
2018-06-25T06:13:09.013Z,6100
2018-06-25T06:22:47.715Z,6040
2018-06-25T06:23:47.966Z,6084
2018-06-25T06:24:47.687Z,6100
2018-06-25T06:25:48.162Z,6080
2018-06-25T06:26:47.738Z,6084
2018-06-25T06:27:47.703Z,6140
2018-06-25T06:28:47.696Z,6168
2018-06-25T06:29:47.450Z,6188
2018-06-25T06:30:47.936Z,6308
2018-06-25T06:31:47.457Z,6492
2018-06-25T06:32:47.448Z,6600
2018-06-25T06:33:47.449Z,6608
2018-06-25T06:34:47.460Z,6612
2018-06-25T06:35:47.448Z,6724
2018-06-25T06:36:47.679Z,6932
2018-06-25T06:37:47.716Z,7164
2018-06-25T06:38:47.905Z,7396
2018-06-25T06:39:47.839Z,7600
2018-06-25T06:40:47.735Z,7744
2018-06-25T06:41:47.954Z,7720
2018-06-25T06:42:47.212Z,7720
2018-06-25T06:43:47.730Z,7776
2018-06-25T06:44:47.940Z,7828
2018-06-25T06:45:47.714Z,7912
2018-06-25T06:46:47.192Z,7956
2018-06-25T06:47:48.105Z,7864
2018-06-25T06:48:47.758Z,7716
2018-06-25T06:49:47.936Z,7660
2018-06-25T06:50:47.696Z,8468
2018-06-25T06:51:47.940Z,7904
2018-06-25T06:52:47.944Z,7964
2018-06-25T06:53:47.467Z,7896
2018-06-25T06:54:47.441Z,7992
2018-06-25T06:55:47.710Z,8104
2018-06-25T06:56:47.985Z,8204
2018-06-25T06:57:48.347Z,8256
2018-06-25T06:58:47.470Z,8204
2018-06-25T06:59:48.044Z,8060
2018-06-25T07:00:47.470Z,7980
2018-06-25T07:01:47.552Z,7984
2018-06-25T07:02:47.731Z,7996
2018-06-25T07:03:47.710Z,7992
2018-06-25T07:04:48.261Z,8004
2018-06-25T07:05:47.528Z,8060
2018-06-25T07:06:47.737Z,8088
2018-06-25T07:07:47.748Z,8108
2018-06-25T07:08:47.761Z,8008
2018-06-25T07:09:47.958Z,7856
2018-06-25T07:10:47.986Z,7660
2018-06-25T07:11:47.731Z,7484
2018-06-25T07:12:47.535Z,7412
2018-06-25T07:13:48.052Z,7480
2018-06-25T07:14:47.761Z,7612
2018-06-25T07:15:47.735Z,7696
2018-06-25T07:16:47.719Z,7648
2018-06-25T07:17:48.122Z,7524
2018-06-25T07:18:47.526Z,7316
2018-06-25T07:19:47.516Z,7128
2018-06-25T07:20:47.927Z,6968
2018-06-25T07:21:48.010Z,6888
2018-06-25T07:22:48.002Z,6896
2018-06-25T07:23:47.537Z,6952
2018-06-25T07:24:47.538Z,7052
2018-06-25T07:25:47.992Z,7144
2018-06-25T07:26:47.798Z,7172
2018-06-25T07:27:47.496Z,7188
2018-06-25T07:28:48.102Z,7244
2018-06-25T07:29:48.103Z,7340
2018-06-25T07:30:47.754Z,7404
2018-06-25T07:31:47.798Z,7380
2018-06-25T07:32:48.012Z,7272
2018-06-25T07:33:48.013Z,7104
2018-06-25T07:34:48.010Z,6864
2018-06-25T07:35:48.303Z,6648
2018-06-25T07:36:47.790Z,6432
2018-06-25T07:37:48.034Z,6264
2018-06-25T07:38:47.773Z,6104
2018-06-25T07:39:47.798Z,5948
2018-06-25T07:40:47.774Z,5896
2018-06-25T07:41:47.809Z,5912
2018-06-25T07:42:47.553Z,5940
2018-06-25T07:43:47.777Z,5944
2018-06-25T07:44:47.560Z,5936
2018-06-25T07:45:47.879Z,5892
2018-06-25T07:46:48.045Z,5820
2018-06-25T07:47:47.850Z,5736
2018-06-25T07:48:48.038Z,5700
2018-06-25T07:49:48.062Z,5756
2018-06-25T07:50:48.112Z,5900
2018-06-25T07:51:47.795Z,6100
2018-06-25T07:52:48.501Z,6312
2018-06-25T07:53:48.292Z,6492
2018-06-25T07:54:47.765Z,6656
2018-06-25T07:55:47.870Z,6824
2018-06-25T07:56:48.089Z,6980
2018-06-25T07:57:47.894Z,7172
2018-06-25T07:58:47.647Z,7416
2018-06-25T07:59:48.469Z,7696
2018-06-25T08:00:48.060Z,7940
2018-06-25T08:01:48.050Z,8104
2018-06-25T08:02:47.925Z,8188
2018-06-25T08:03:48.472Z,8236
2018-06-25T08:04:47.875Z,8312
2018-06-25T08:05:48.103Z,8380
2018-06-25T08:06:47.859Z,8448
2018-06-25T08:07:48.114Z,8560
2018-06-25T08:08:48.097Z,8656
2018-06-25T08:09:48.217Z,8668
2018-06-25T08:10:47.572Z,8592
2018-06-25T08:11:48.063Z,8464
2018-06-25T08:12:48.077Z,8320
2018-06-25T08:13:47.607Z,8188
2018-06-25T08:14:47.813Z,8052
2018-06-25T08:15:47.841Z,7916
2018-06-25T08:16:47.744Z,7804
2018-06-25T08:17:47.614Z,7796
2018-06-25T08:18:47.567Z,7812
2018-06-25T08:19:47.677Z,7820
2018-06-25T08:20:48.312Z,7820
2018-06-25T08:21:48.163Z,7796
2018-06-25T08:22:48.039Z,7764
2018-06-25T08:23:48.162Z,7720
2018-06-25T08:24:48.402Z,7716
2018-06-25T08:25:47.995Z,7744
2018-06-25T08:26:47.873Z,7812
2018-06-25T08:27:47.666Z,7868
2018-06-25T08:28:48.381Z,7904
2018-06-25T08:29:48.457Z,7968
2018-06-25T08:30:47.951Z,8116
2018-06-25T08:31:48.268Z,8364
2018-06-25T08:32:47.652Z,8644
2018-06-25T08:33:48.080Z,8908
2018-06-25T08:34:48.117Z,9116
2018-06-25T08:35:47.886Z,9340
2018-06-25T08:36:48.173Z,9516
2018-06-25T08:37:47.725Z,9720
2018-06-25T08:38:47.694Z,9892
2018-06-25T08:39:48.390Z,9892
2018-06-25T08:40:47.891Z,9780
2018-06-25T08:41:47.876Z,9752
2018-06-25T08:42:47.788Z,9852
2018-06-25T08:43:48.163Z,10080
2018-06-25T08:44:48.271Z,10396
2018-06-25T08:45:48.176Z,10720
2018-06-25T08:46:47.873Z,10968
2018-06-25T08:47:47.892Z,11088
2018-06-25T08:48:48.300Z,11192
2018-06-25T08:49:47.895Z,11268
2018-06-25T08:50:48.220Z,11344
2018-06-25T08:51:47.705Z,11444
2018-06-25T08:52:47.613Z,11548
2018-06-25T08:53:47.884Z,11584
2018-06-25T08:54:48.106Z,11640
2018-06-25T08:55:47.888Z,11464
2018-06-25T08:56:47.947Z,11320
2018-06-25T08:57:48.132Z,11260
2018-06-25T08:58:47.952Z,11220
2018-06-25T08:59:47.910Z,11208
2018-06-25T09:00:48.102Z,11216
2018-06-25T09:01:47.704Z,11188
2018-06-25T09:02:47.885Z,11184
2018-06-25T09:03:47.906Z,11448
2018-06-25T09:04:47.667Z,11420
2018-06-25T09:05:47.962Z,11508
2018-06-25T09:06:47.664Z,11484
2018-06-25T09:07:47.913Z,11436
2018-06-25T09:08:47.679Z,11508
2018-06-25T09:09:48.221Z,11588
2018-06-25T09:10:48.224Z,11540
2018-06-25T09:11:47.682Z,11464
2018-06-25T09:12:48.026Z,11540
2018-06-25T09:13:48.176Z,11652
2018-06-25T09:14:47.937Z,11808
2018-06-25T09:15:47.929Z,12012
2018-06-25T09:16:47.984Z,12196
2018-06-25T09:17:47.964Z,12308
2018-06-25T09:18:47.957Z,12396
2018-06-25T09:19:48.209Z,12448
2018-06-25T09:20:47.963Z,12524
2018-06-25T09:21:47.948Z,12644
2018-06-25T09:22:48.210Z,12720
2018-06-25T09:23:47.737Z,13148
2018-06-25T09:24:47.479Z,13816
2018-06-25T09:25:48.022Z,16224
2018-06-25T09:26:47.966Z,13104
2018-06-25T09:27:48.721Z,12384
2018-06-25T09:28:47.764Z,12584
2018-06-25T09:29:47.499Z,12812
2018-06-25T09:30:47.957Z,12936
2018-06-25T09:31:48.002Z,14228
2018-06-25T09:32:47.745Z,19168
2018-06-25T09:33:48.246Z,19200
2018-06-25T09:34:47.762Z,16896
2018-06-25T09:35:47.504Z,17888
2018-06-25T09:36:47.993Z,15904
2018-06-25T09:37:47.771Z,14272
2018-06-25T09:38:47.758Z,14272
2018-06-25T09:39:48.282Z,15512
2018-06-25T09:40:48.223Z,16032
2018-06-25T09:41:48.335Z,19456
2018-06-25T09:42:48.046Z,16672
2018-06-25T09:43:48.035Z,15776
2018-06-25T09:44:47.806Z,17120
2018-06-25T09:45:48.321Z,17824
2018-06-25T09:46:48.309Z,17984
2018-06-25T09:47:47.532Z,13156
2018-06-25T09:48:48.097Z,11552
2018-06-25T09:49:48.060Z,11376
2018-06-25T09:50:48.303Z,11316
2018-06-25T09:51:48.303Z,11416
2018-06-25T09:52:47.808Z,11500
2018-06-25T09:53:48.082Z,11356
2018-06-25T09:54:48.515Z,11260
2018-06-25T09:55:48.382Z,11404
2018-06-25T09:56:47.834Z,11860
2018-06-25T09:57:47.882Z,12520
2018-06-25T09:58:48.105Z,13252
2018-06-25T09:59:48.121Z,18688
2018-06-25T10:00:47.854Z,19424
2018-06-25T10:01:48.363Z,14116
2018-06-25T10:02:48.453Z,16960
2018-06-25T10:03:48.255Z,13948
2018-06-25T10:04:47.930Z,13080
2018-06-25T10:05:48.137Z,17440
2018-06-25T10:06:47.915Z,13668
2018-06-25T10:07:47.619Z,12100
2018-06-25T10:08:48.419Z,10788
2018-06-25T10:09:48.134Z,10396
2018-06-25T10:10:48.531Z,10336
2018-06-25T10:11:48.395Z,10348
2018-06-25T10:12:47.893Z,10160
2018-06-25T10:13:48.146Z,9904
2018-06-25T10:14:48.173Z,9832
2018-06-25T10:15:48.098Z,9592
2018-06-25T10:16:48.273Z,9500
2018-06-25T10:17:48.167Z,9512
2018-06-25T10:18:48.416Z,9648
2018-06-25T10:19:48.179Z,9952
2018-06-25T10:20:48.702Z,10424
2018-06-25T10:21:48.479Z,10852
2018-06-25T10:53:29.563Z,11140
2018-06-25T10:54:29.569Z,11056
2018-06-25T10:55:29.137Z,11048
2018-06-25T10:56:29.325Z,11204
2018-06-25T10:57:29.373Z,11392
2018-06-25T10:58:29.898Z,11428
2018-06-25T10:59:30.407Z,11464
2018-06-25T11:00:29.630Z,11480
2018-06-25T11:01:29.359Z,11584
2018-06-25T11:02:29.364Z,11704
2018-06-25T11:03:29.583Z,11708
2018-06-25T11:04:29.854Z,11728
2018-06-25T11:05:29.348Z,11848
2018-06-25T11:06:29.837Z,11864
2018-06-25T11:07:30.653Z,12148
2018-06-25T11:08:29.841Z,12332
2018-06-25T11:09:29.630Z,12300
2018-06-25T11:10:29.639Z,12344
2018-06-25T11:11:29.629Z,12352
2018-06-25T11:12:29.902Z,12256
2018-06-25T11:13:29.976Z,11908
2018-06-25T11:14:29.917Z,12080
2018-06-25T11:15:29.957Z,12016
2018-06-25T11:16:29.675Z,11780
2018-06-25T11:17:29.911Z,11444
2018-06-25T11:18:29.409Z,11048
2018-06-25T11:19:29.923Z,10936
2018-06-25T11:20:29.754Z,10928
2018-06-25T11:21:29.914Z,11068
2018-06-25T11:22:29.661Z,11252
2018-06-25T11:23:29.666Z,11432
2018-06-25T11:24:29.805Z,12796
2018-06-25T11:25:29.520Z,11740
2018-06-25T11:26:29.743Z,11788
2018-06-25T11:27:30.095Z,13480
2018-06-25T11:28:29.996Z,14680
2018-06-25T11:29:29.523Z,14900
2018-06-25T11:30:30.205Z,14128
2018-06-25T11:31:29.745Z,14260
2018-06-25T11:32:29.993Z,14448
2018-06-25T11:33:29.753Z,13764
2018-06-25T11:34:30.082Z,13644
2018-06-25T11:35:30.815Z,13932
2018-06-25T11:36:29.812Z,13860
2018-06-25T11:37:29.757Z,13720
2018-06-25T11:38:30.020Z,13092
2018-06-25T11:39:29.992Z,11580
2018-06-25T11:40:29.817Z,11756
2018-06-25T11:41:30.027Z,13388
2018-06-25T11:42:29.991Z,13364
2018-06-25T11:43:30.023Z,13588
2018-06-25T11:44:29.814Z,13692
2018-06-25T11:45:29.819Z,12880
2018-06-25T11:46:30.000Z,11144
2018-06-25T11:47:30.023Z,12948
2018-06-25T11:48:29.804Z,12052
2018-06-25T11:49:29.597Z,12500
2018-06-25T11:50:29.808Z,12228
2018-06-25T11:51:30.024Z,10252
2018-06-25T11:52:29.789Z,9296
2018-06-25T11:53:29.802Z,9364
2018-06-25T11:54:29.803Z,9228
2018-06-25T11:55:29.964Z,11996
2018-06-25T11:56:29.836Z,11940
2018-06-25T11:57:29.550Z,12300
2018-06-25T11:58:29.821Z,11960
2018-06-25T11:59:29.809Z,11828
2018-06-25T12:00:29.615Z,10624
2018-06-25T12:01:30.127Z,13084
2018-06-25T12:02:30.294Z,13364
2018-06-25T12:03:30.485Z,12680
2018-06-25T12:04:29.840Z,12444
2018-06-25T12:05:29.941Z,11724
2018-06-25T12:06:29.600Z,11036
2018-06-25T12:07:29.872Z,11148
2018-06-25T12:08:30.141Z,11072
2018-06-25T12:09:29.608Z,12680
2018-06-25T12:10:29.883Z,10896
2018-06-25T12:11:30.122Z,11956
2018-06-25T12:12:30.465Z,11028
2018-06-25T12:13:29.865Z,12520
2018-06-25T12:14:30.128Z,10852
2018-06-25T12:15:29.676Z,10872
2018-06-25T12:16:30.129Z,10736
2018-06-25T12:17:29.971Z,10660
2018-06-25T12:18:29.908Z,10928
2018-06-25T12:19:30.133Z,11268
2018-06-25T12:20:29.961Z,13300
2018-06-25T12:21:29.640Z,13432
2018-06-25T12:22:29.918Z,12956
2018-06-25T12:23:30.193Z,11904
2018-06-25T12:24:29.908Z,11960
2018-06-25T12:25:29.906Z,12148
2018-06-25T12:26:29.909Z,12772
2018-06-25T12:27:29.919Z,11140
2018-06-25T12:28:29.666Z,11052
2018-06-25T12:29:29.961Z,12576
2018-06-25T12:30:30.257Z,11036
2018-06-25T12:31:30.194Z,11184
2018-06-25T12:32:29.693Z,11472
2018-06-25T12:33:29.932Z,10896
2018-06-25T12:34:30.209Z,10748
2018-06-25T12:35:29.937Z,12560
2018-06-25T12:36:30.204Z,12904
2018-06-25T12:37:29.947Z,12868
2018-06-25T12:38:29.709Z,12772
2018-06-25T12:39:30.222Z,12500
2018-06-25T12:40:30.298Z,11892
2018-06-25T12:41:30.174Z,12368
2018-06-25T12:42:29.984Z,12180
2018-06-25T12:43:30.014Z,11692
2018-06-25T12:44:30.261Z,11212
2018-06-25T12:45:29.984Z,11312
2018-06-25T12:46:29.768Z,11108
2018-06-25T12:47:29.748Z,9768
2018-06-25T12:48:31.295Z,11116
2018-06-25T12:49:30.067Z,10344
2018-06-25T12:50:30.309Z,8920
2018-06-25T12:51:29.767Z,7804
2018-06-25T12:52:30.044Z,8040
2018-06-25T12:53:30.052Z,9296
2018-06-25T12:54:30.043Z,8836
2018-06-25T12:55:30.080Z,7976
2018-06-25T12:56:30.076Z,7844
2018-06-25T12:57:30.078Z,8048
2018-06-25T12:58:29.790Z,8392
2018-06-25T12:59:30.044Z,9564
2018-06-25T13:00:30.155Z,9644
2018-06-25T13:01:30.235Z,9580
2018-06-25T13:02:30.333Z,9564
2018-06-25T13:03:29.821Z,9512
2018-06-25T13:04:30.091Z,9512
2018-06-25T13:05:30.162Z,9640
2018-06-25T13:06:30.378Z,9772
2018-06-25T13:07:29.833Z,9804
2018-06-25T13:08:30.089Z,9620
2018-06-25T13:09:29.844Z,9560
2018-06-25T13:10:30.429Z,9656
2018-06-25T13:11:30.097Z,9916
2018-06-25T13:12:29.865Z,10144
2018-06-25T13:13:29.902Z,10404
2018-06-25T13:14:30.371Z,10480
2018-06-25T13:15:29.892Z,10152
2018-06-25T13:16:30.122Z,10612
2018-06-25T13:17:30.399Z,10572
2018-06-25T13:18:30.149Z,9700
2018-06-25T13:19:30.433Z,10524
2018-06-25T13:20:30.202Z,9048
2018-06-25T13:21:30.150Z,9528
2018-06-25T13:22:30.389Z,8560
2018-06-25T13:23:30.154Z,9076
2018-06-25T13:24:29.901Z,8692
2018-06-25T13:25:30.314Z,10280
2018-06-25T13:26:29.901Z,10392
2018-06-25T13:27:29.904Z,10168
2018-06-25T13:28:30.168Z,9792
2018-06-25T13:29:30.182Z,8780
2018-06-25T13:30:30.223Z,9112
2018-06-25T13:31:30.183Z,9556
2018-06-25T13:32:30.444Z,8660
2018-06-25T13:33:30.455Z,9568
2018-06-25T13:34:29.677Z,8900
2018-06-25T13:35:30.837Z,8108
2018-06-25T13:36:30.208Z,8400
2018-06-25T13:37:30.004Z,8612
2018-06-25T13:38:30.210Z,8688
2018-06-25T13:39:29.703Z,8732
2018-06-25T13:40:30.481Z,8648
2018-06-25T13:41:30.300Z,8724
2018-06-25T13:42:29.979Z,8864
2018-06-25T13:43:29.969Z,8996
2018-06-25T13:44:30.901Z,9032
2018-06-25T13:45:30.660Z,8984
2018-06-25T13:46:29.720Z,8948
2018-06-25T13:47:29.985Z,8948
2018-06-25T13:48:30.778Z,8984
2018-06-25T13:49:30.268Z,8852
2018-06-25T13:50:31.345Z,8700
2018-06-25T13:51:30.023Z,8416
2018-06-25T13:52:30.055Z,8412
2018-06-25T13:53:30.836Z,8536
2018-06-25T13:54:30.030Z,8632
2018-06-25T13:55:30.364Z,9468
2018-06-25T13:56:30.269Z,10204
2018-06-25T13:57:30.062Z,10116
2018-06-25T13:58:30.291Z,9960
2018-06-25T13:59:30.304Z,9596
2018-06-25T14:00:30.639Z,8048
2018-06-25T14:01:29.832Z,8072
2018-06-25T14:02:30.302Z,9668
2018-06-25T14:03:30.565Z,9884
2018-06-25T14:04:30.315Z,9960
2018-06-25T14:05:30.346Z,9616
2018-06-25T14:06:30.348Z,9736
2018-06-25T14:07:30.150Z,9660
2018-06-25T14:08:30.311Z,9412
2018-06-25T14:09:30.606Z,9068
2018-06-25T14:10:30.632Z,8840